Time;durP1;ratioP1;P1;durP2;ratioP2;P2;SDS_P1;SDS_P2;PMS_P1;PMS_P2;Temp;Humidity;BMP_temperature;BMP_pressure;BME280_temperature;BME280_humidity;BME280_pressure;Samples;Min_cycle;Max_cycle;Signal;HPM_P1;HPM_P2
2022/08/31 00:04:52;;;;;;;6.38;1.83;;;;;;;;;;5048613;28;20084;-82
2022/08/31 00:07:18;;;;;;;6.97;1.95;;;;;;;;;;5052618;28;20055;-82
2022/08/31 00:09:44;;;;;;;2.50;1.63;;;17.00;99.90;;;;;;5053411;28;20075;-81
2022/08/31 00:12:11;;;;;;;3.33;2.22;;;;;;;;;;5052602;28;20021;-81
2022/08/31 00:14:36;;;;;;;3.50;1.10;;;16.80;99.90;;;;;;5051855;28;20496;-81
2022/08/31 00:17:02;;;;;;;2.47;1.65;;;;;;;;;;5049670;28;20036;-82
2022/08/31 00:19:28;;;;;;;2.58;1.25;;;16.60;99.90;;;;;;5049925;28;20055;-82
2022/08/31 00:21:54;;;;;;;3.53;1.52;;;;;;;;;;5053133;28;20100;-81
2022/08/31 00:24:20;;;;;;;3.70;1.50;;;;;;;;;;5050483;28;20037;-81
2022/08/31 00:26:46;;;;;;;3.78;1.40;;;;;;;;;;5052635;28;20021;-82
2022/08/31 00:29:12;;;;;;;2.08;0.80;;;;;;;;;;5054374;28;20115;-81
2022/08/31 00:31:38;;;;;;;2.65;1.08;;;;;;;;;;5053896;28;20040;-83
2022/08/31 00:34:04;;;;;;;3.15;1.40;;;16.80;99.90;;;;;;5047314;28;20527;-81
2022/08/31 00:36:30;;;;;;;4.38;1.77;;;;;;;;;;5047034;28;20029;-81
2022/08/31 00:38:56;;;;;;;3.38;1.17;;;;;;;;;;5052456;28;20096;-82
2022/08/31 00:41:29;;;;;;;1.95;1.10;;;18.10;99.90;;;;;;5052370;28;20547;-82
2022/08/31 00:43:55;;;;;;;;;;;;;;;;;;5053621;28;20029;-81
2022/08/31 00:46:27;;;;;;;3.22;1.58;;;17.00;99.90;;;;;;5051713;28;19972;-81
2022/08/31 00:49:06;;;;;;;2.17;1.30;;;16.90;99.90;;;;;;5050876;28;20033;-81
2022/08/31 00:51:40;;;;;;;2.47;1.42;;;18.40;99.90;;;;;;5003040;28;1434875;-83
2022/08/31 00:54:08;;;;;;;2.78;1.50;;;16.90;99.90;;;;;;5052320;28;20060;-82
2022/08/31 00:56:35;;;;;;;3.55;1.35;;;16.90;99.90;;;;;;5052961;28;20469;-81
2022/08/31 00:59:02;;;;;;;3.58;1.30;;;18.10;99.90;;;;;;5059151;28;20024;-82
2022/08/31 01:01:29;;;;;;;3.13;1.90;;;;;;;;;;5053092;28;20029;-81
2022/08/31 01:03:55;;;;;;;2.90;1.20;;;17.10;99.90;;;;;;5051924;28;20557;-81
2022/08/31 01:06:21;;;;;;;3.60;1.48;;;16.70;99.90;;;;;;5049432;28;20029;-82
2022/08/31 01:08:47;;;;;;;5.53;1.90;;;;;;;;;;5052039;28;20116;-83
2022/08/31 01:11:14;;;;;;;1.67;1.10;;;16.60;99.90;;;;;;5050774;28;20466;-82
2022/08/31 01:13:43;;;;;;;2.38;1.30;;;17.00;99.90;;;;;;5052937;28;20021;-82
2022/08/31 01:16:14;;;;;;;2.58;1.33;;;17.20;99.90;;;;;;5048038;28;20036;-82
2022/08/31 01:18:41;;;;;;;4.93;1.45;;;17.90;99.90;;;;;;5053123;28;20111;-82
2022/08/31 01:21:22;;;;;;;2.00;1.17;;;16.60;99.90;;;;;;5051061;28;20546;-82
2022/08/31 01:23:48;;;;;;;3.28;1.63;;;;;;;;;;5048197;28;20025;-82
2022/08/31 01:26:17;;;;;;;3.60;1.55;;;17.10;99.90;;;;;;5053339;28;20027;-82
2022/08/31 01:28:43;;;;;;;3.05;1.70;;;17.10;99.90;;;;;;5053398;28;20064;-81
2022/08/31 01:31:09;;;;;;;2.03;1.05;;;;;;;;;;5047223;28;20033;-81
2022/08/31 01:33:37;;;;;;;3.05;1.50;;;17.20;99.90;;;;;;5049659;28;20799;-80
2022/08/31 01:36:04;;;;;;;4.40;1.55;;;18.40;99.90;;;;;;5051987;28;20044;-81
2022/08/31 01:38:32;;;;;;;4.13;1.38;;;17.20;99.90;;;;;;5047329;28;20502;-80
2022/08/31 01:41:02;;;;;;;2.55;0.95;;;16.90;99.90;;;;;;5052645;28;20033;-82
2022/08/31 01:43:32;;;;;;;2.10;1.20;;;17.10;99.90;;;;;;5053689;28;20051;-83
2022/08/31 01:45:58;;;;;;;3.80;1.77;;;16.90;99.90;;;;;;5052239;28;20539;-81
2022/08/31 01:48:24;;;;;;;2.13;1.40;;;17.30;99.90;;;;;;5048270;28;20893;-81
2022/08/31 01:50:50;;;;;;;5.32;1.70;;;17.30;99.90;;;;;;5052370;28;20132;-81
2022/08/31 01:53:16;;;;;;;4.80;1.33;;;17.20;99.90;;;;;;5051006;28;20021;-80
2022/08/31 01:55:42;;;;;;;1.73;1.13;;;;;;;;;;5052867;28;20558;-82
2022/08/31 01:58:08;;;;;;;3.45;1.23;;;;;;;;;;5054694;28;20070;-82
2022/08/31 02:00:34;;;;;;;5.93;1.70;;;16.90;99.90;;;;;;5053875;28;20037;-81
2022/08/31 02:03:01;;;;;;;5.88;1.48;;;17.00;99.90;;;;;;5051582;28;20070;-81
2022/08/31 02:05:27;;;;;;;2.35;1.48;;;;;;;;;;5047767;28;20026;-81
2022/08/31 02:07:54;;;;;;;3.17;1.45;;;17.10;99.90;;;;;;5053333;28;20078;-81
2022/08/31 02:10:20;;;;;;;2.40;0.85;;;;;;;;;;5050772;28;20040;-81
2022/08/31 02:12:46;;;;;;;3.58;1.40;;;;;;;;;;5054411;28;20017;-81
2022/08/31 02:15:12;;;;;;;3.22;1.33;;;;;;;;;;5051525;28;20492;-81
2022/08/31 02:17:38;;;;;;;6.57;1.38;;;16.80;99.90;;;;;;5051763;28;20028;-80
2022/08/31 02:20:07;;;;;;;2.78;1.10;;;17.10;99.90;;;;;;5050379;28;20037;-81
2022/08/31 02:22:33;;;;;;;1.90;1.20;;;;;;;;;;5055754;28;20062;-82
2022/08/31 02:24:58;;;;;;;2.10;1.35;;;;;;;;;;5053380;28;20024;-81
2022/08/31 02:27:25;;;;;;;3.13;1.67;;;16.90;99.90;;;;;;5051060;28;20043;-80
2022/08/31 02:29:50;;;;;;;2.80;1.17;;;17.00;99.90;;;;;;5051324;28;20032;-81
2022/08/31 02:32:16;;;;;;;2.63;1.50;;;16.80;99.90;;;;;;5049901;28;20083;-81
2022/08/31 02:34:42;;;;;;;3.25;1.60;;;;;;;;;;5051200;28;20021;-81
2022/08/31 02:37:08;;;;;;;2.10;1.30;;;;;;;;;;5050576;28;20017;-81
2022/08/31 02:39:33;;;;;;;2.83;1.42;;;;;;;;;;5046629;28;20079;-81
2022/08/31 02:41:59;;;;;;;2.88;1.48;;;;;;;;;;5049677;28;20036;-81
2022/08/31 02:44:25;;;;;;;2.20;1.52;;;;;;;;;;5050579;28;20057;-81
2022/08/31 02:46:51;;;;;;;2.42;1.63;;;;;;;;;;5045190;28;20025;-81
2022/08/31 02:49:17;;;;;;;4.43;1.80;;;;;;;;;;5044049;28;20091;-81
2022/08/31 02:51:43;;;;;;;2.58;1.60;;;;;;;;;;5050215;28;20036;-81
2022/08/31 02:54:10;;;;;;;4.20;2.22;;;18.10;99.90;;;;;;5047218;28;20492;-81
2022/08/31 02:56:36;;;;;;;3.88;1.40;;;16.60;99.90;;;;;;5045957;28;20144;-82
2022/08/31 02:59:02;;;;;;;2.17;1.25;;;;;;;;;;5049857;28;20114;-81
2022/08/31 03:01:28;;;;;;;2.92;1.48;;;;;;;;;;5048366;28;20039;-81
2022/08/31 03:03:54;;;;;;;2.55;1.30;;;17.40;99.90;;;;;;5046600;28;20017;-82
2022/08/31 03:06:21;;;;;;;3.38;1.30;;;16.80;99.90;;;;;;5048882;28;20029;-81
2022/08/31 03:08:48;;;;;;;3.10;1.40;;;16.50;99.90;;;;;;5049506;28;20672;-81
2022/08/31 03:11:15;;;;;;;2.80;1.45;;;13.40;99.90;;;;;;5048374;28;20857;-82
2022/08/31 03:13:41;;;;;;;4.20;1.77;;;16.40;99.90;;;;;;5049287;28;20025;-81
2022/08/31 03:16:07;;;;;;;2.30;1.23;;;16.70;99.90;;;;;;5050888;28;20433;-81
2022/08/31 03:18:34;;;;;;;9.43;1.73;;;;;;;;;;5044525;28;20078;-81
2022/08/31 03:21:01;;;;;;;1.88;1.13;;;;;;;;;;5050774;28;20472;-82
2022/08/31 03:23:27;;;;;;;6.07;1.70;;;;;;;;;;5048673;28;20013;-81
2022/08/31 03:25:53;;;;;;;4.32;1.60;;;;;;;;;;5049174;28;20036;-81
2022/08/31 03:28:19;;;;;;;2.28;1.65;;;15.50;99.90;;;;;;5050892;28;20033;-82
2022/08/31 03:30:45;;;;;;;2.25;1.20;;;;;;;;;;5044330;28;20041;-81
2022/08/31 03:33:12;;;;;;;3.35;2.10;;;16.60;99.90;;;;;;5050395;28;20017;-81
2022/08/31 03:35:43;;;;;;;9.48;2.75;;;16.40;99.90;;;;;;5042364;28;20075;-82
2022/08/31 03:38:09;;;;;;;2.65;1.55;;;16.60;99.90;;;;;;5052278;28;20025;-83
2022/08/31 03:40:36;;;;;;;3.65;2.03;;;;;;;;;;5048458;28;20064;-81
2022/08/31 03:43:01;;;;;;;4.13;2.08;;;;;;;;;;5051891;28;20183;-81
2022/08/31 03:45:30;;;;;;;3.42;2.22;;;;;;;;;;5047199;28;20031;-81
2022/08/31 03:47:58;;;;;;;3.65;1.60;;;;;;;;;;5047064;28;20452;-81
2022/08/31 03:50:24;;;;;;;3.85;1.77;;;;;;;;;;5049575;28;20106;-81
2022/08/31 03:52:49;;;;;;;2.78;1.60;;;;;;;;;;5050700;28;20028;-81
2022/08/31 03:55:16;;;;;;;4.70;1.48;;;;;;;;;;5051347;28;20037;-81
2022/08/31 03:57:42;;;;;;;3.45;1.90;;;;;;;;;;5051282;28;20025;-81
2022/08/31 04:00:09;;;;;;;2.03;1.25;;;16.30;99.90;;;;;;5051687;28;20033;-81
2022/08/31 04:02:38;;;;;;;4.20;1.48;;;16.50;99.90;;;;;;5039995;28;20017;-81
2022/08/31 04:05:04;;;;;;;3.65;1.85;;;15.80;99.90;;;;;;5048958;28;20039;-82
2022/08/31 04:07:30;;;;;;;4.03;1.77;;;16.40;99.90;;;;;;5053352;28;20826;-82
2022/08/31 04:09:56;;;;;;;4.80;1.85;;;;;;;;;;5046978;28;20120;-81
2022/08/31 04:12:22;;;;;;;4.22;1.60;;;;;;;;;;5048991;28;20055;-81
2022/08/31 04:14:48;;;;;;;3.03;1.95;;;;;;;;;;5057856;28;20335;-81
2022/08/31 04:17:14;;;;;;;3.45;2.00;;;;;;;;;;5056305;28;20029;-81
2022/08/31 04:19:40;;;;;;;3.53;1.90;;;;;;;;;;5046944;28;20025;-81
2022/08/31 04:22:06;;;;;;;3.40;1.55;;;;;;;;;;5053213;28;20056;-80
2022/08/31 04:24:33;;;;;;;3.17;1.77;;;;;;;;;;5047898;28;20025;-81
2022/08/31 04:26:59;;;;;;;3.10;1.77;;;;;;;;;;5050931;28;20017;-81
2022/08/31 04:29:25;;;;;;;2.67;1.73;;;;;;;;;;5050620;28;20078;-80
2022/08/31 04:31:51;;;;;;;3.08;1.75;;;;;;;;;;5052509;28;20071;-81
2022/08/31 04:34:17;;;;;;;3.03;2.00;;;;;;;;;;5054587;28;20071;-80
2022/08/31 04:36:45;;;;;;;3.83;1.95;;;16.50;99.90;;;;;;5049179;28;20024;-81
2022/08/31 04:39:11;;;;;;;5.07;1.67;;;15.20;99.90;;;;;;5055998;28;20047;-82
2022/08/31 04:41:39;;;;;;;4.75;2.13;;;16.40;99.90;;;;;;5053336;28;20021;-81
2022/08/31 04:44:05;;;;;;;4.95;2.20;;;;;;;;;;5052522;28;20044;-81
2022/08/31 04:46:32;;;;;;;5.45;2.13;;;16.40;99.90;;;;;;5052655;28;20113;-80
2022/08/31 04:48:58;;;;;;;4.55;1.75;;;;;;;;;;5052083;28;20116;-81
2022/08/31 04:51:35;;;;;;;3.05;2.05;;;16.20;99.90;;;;;;5055972;28;20514;-81
2022/08/31 04:54:04;;;;;;;3.08;1.80;;;16.50;99.90;;;;;;5045228;28;20021;-80
2022/08/31 04:56:33;;;;;;;3.92;2.00;;;15.30;99.90;;;;;;5049370;28;20036;-81
2022/08/31 04:59:01;;;;;;;3.10;1.60;;;15.40;99.90;;;;;;5059243;28;20412;-82
2022/08/31 05:01:31;;;;;;;6.00;2.65;;;16.50;99.90;;;;;;5048516;28;20031;-81
2022/08/31 05:03:57;;;;;;;3.47;2.30;;;;;;;;;;5051458;28;20025;-81
2022/08/31 05:06:26;;;;;;;3.50;1.63;;;16.30;99.90;;;;;;5048810;28;20035;-81
2022/08/31 05:08:53;;;;;;;3.03;1.52;;;16.30;99.90;;;;;;5050710;28;20017;-81
2022/08/31 05:11:20;;;;;;;4.35;1.70;;;;;;;;;;5048623;28;21289;-82
2022/08/31 05:13:46;;;;;;;2.90;1.45;;;;;;;;;;5051862;28;20047;-82
2022/08/31 05:16:12;;;;;;;3.15;1.73;;;;;;;;;;5048017;28;20028;-82
2022/08/31 05:18:39;;;;;;;5.53;2.03;;;15.30;99.90;;;;;;5049345;28;20025;-81
2022/08/31 05:21:33;;;;;;;4.53;2.05;;;15.60;99.90;;;;;;5046984;28;20025;-81
2022/08/31 05:24:02;;;;;;;5.90;3.03;;;16.30;99.90;;;;;;5038841;28;20052;-81
2022/08/31 05:26:31;;;;;;;3.47;1.85;;;16.40;99.90;;;;;;5051491;28;20036;-81
2022/08/31 05:28:58;;;;;;;4.63;2.63;;;16.30;99.90;;;;;;5052321;28;20249;-82
2022/08/31 05:31:27;;;;;;;9.52;3.90;;;;;;;;;;5051882;28;20044;-81
2022/08/31 05:33:54;;;;;;;16.73;6.05;;;;;;;;;;5048124;28;20117;-81
2022/08/31 05:36:19;;;;;;;12.30;5.35;;;16.60;99.90;;;;;;5048975;28;20158;-82
2022/08/31 05:38:46;;;;;;;8.82;4.03;;;;;;;;;;5049180;28;20557;-82
2022/08/31 05:41:12;;;;;;;10.43;3.95;;;16.80;99.90;;;;;;5049957;28;20652;-82
2022/08/31 05:43:38;;;;;;;9.07;4.35;;;15.50;99.90;;;;;;5052755;28;20033;-80
2022/08/31 05:46:11;;;;;;;10.75;5.43;;;16.40;99.90;;;;;;5044709;28;20033;-81
2022/08/31 05:48:37;;;;;;;14.02;6.38;;;;;;;;;;5051340;28;20523;-82
2022/08/31 05:51:06;;;;;;;17.20;7.70;;;16.80;99.90;;;;;;5052246;28;20123;-81
2022/08/31 05:53:32;;;;;;;10.15;4.50;;;16.70;99.90;;;;;;5045785;28;20032;-81
2022/08/31 05:56:00;;;;;;;5.72;2.85;;;16.80;99.90;;;;;;5041963;28;20049;-81
2022/08/31 05:58:27;;;;;;;8.38;2.80;;;;;;;;;;5042006;28;20036;-81
2022/08/31 06:00:53;;;;;;;7.50;3.70;;;;;;;;;;5050285;28;20047;-81
2022/08/31 06:03:18;;;;;;;5.00;2.42;;;;;;;;;;5049836;28;21649;-81
2022/08/31 06:05:44;;;;;;;4.53;2.40;;;;;;;;;;5051394;28;20052;-82
2022/08/31 06:08:10;;;;;;;5.18;1.73;;;;;;;;;;5058011;28;20044;-80
2022/08/31 06:10:36;;;;;;;4.45;1.92;;;;;;;;;;5048841;28;20103;-81
2022/08/31 06:13:04;;;;;;;7.43;2.20;;;16.80;99.90;;;;;;5044829;28;20047;-81
2022/08/31 06:15:30;;;;;;;8.90;2.72;;;;;;;;;;5040802;28;20025;-80
2022/08/31 06:17:56;;;;;;;3.80;2.30;;;;;;;;;;5048050;28;20108;-81
2022/08/31 06:20:22;;;;;;;4.20;2.38;;;;;;;;;;5046245;28;20025;-81
2022/08/31 06:22:48;;;;;;;4.50;2.05;;;;;;;;;;5050622;28;20036;-81
2022/08/31 06:25:17;;;;;;;3.10;1.65;;;;;;;;;;5044210;28;20032;-80
2022/08/31 06:27:42;;;;;;;4.65;2.13;;;17.30;99.90;;;;;;5048394;28;20032;-81
2022/08/31 06:30:09;;;;;;;4.50;2.30;;;17.10;99.90;;;;;;5046453;28;20036;-81
2022/08/31 06:32:34;;;;;;;4.50;2.00;;;17.30;99.90;;;;;;5044081;28;20029;-81
2022/08/31 06:35:00;;;;;;;83.85;30.55;;;17.60;99.90;;;;;;5049632;28;20024;-81
2022/08/31 06:37:26;;;;;;;8.13;4.15;;;;;;;;;;5041339;28;20024;-82
2022/08/31 06:39:52;;;;;;;4.45;2.03;;;;;;;;;;5046229;28;20117;-82
2022/08/31 06:42:19;;;;;;;3.92;1.98;;;17.80;99.90;;;;;;5051751;28;20063;-82
2022/08/31 06:44:45;;;;;;;8.52;1.90;;;;;;;;;;5045084;28;20021;-82
2022/08/31 06:47:10;;;;;;;5.13;2.38;;;17.60;99.90;;;;;;5048104;28;20044;-82
2022/08/31 06:49:36;;;;;;;2.85;2.05;;;17.40;99.90;;;;;;5044989;28;21323;-81
2022/08/31 06:52:02;;;;;;;3.92;1.80;;;17.80;99.90;;;;;;5051948;28;20481;-81
2022/08/31 06:54:28;;;;;;;3.60;1.85;;;;;;;;;;5049808;28;20037;-81
2022/08/31 06:56:56;;;;;;;5.32;2.55;;;18.80;99.90;;;;;;5050973;28;20576;-81
2022/08/31 06:59:23;;;;;;;4.15;2.22;;;;;;;;;;5044460;28;20101;-81
2022/08/31 07:01:48;;;;;;;4.30;1.52;;;18.70;99.90;;;;;;5053441;28;20037;-82
2022/08/31 07:04:14;;;;;;;5.90;1.92;;;;;;;;;;5049875;28;20492;-82
2022/08/31 07:06:42;;;;;;;4.85;2.17;;;18.90;99.90;;;;;;5054199;28;20484;-82
2022/08/31 07:09:12;;;;;;;3.15;1.70;;;18.10;99.90;;;;;;5055619;28;20147;-82
2022/08/31 07:11:47;;;;;;;4.25;1.73;;;18.50;99.90;;;;;;5042193;28;20126;-81
2022/08/31 07:14:15;;;;;;;4.30;2.42;;;19.20;99.90;;;;;;5040044;28;20036;-81
2022/08/31 07:16:42;;;;;;;10.85;2.22;;;17.80;99.90;;;;;;5043043;28;20033;-82
2022/08/31 07:19:09;;;;;;;4.18;2.13;;;19.00;99.90;;;;;;5038186;28;20024;-81
2022/08/31 07:21:40;;;;;;;3.45;2.08;;;18.10;99.90;;;;;;5050149;28;20025;-83
2022/08/31 07:24:06;;;;;;;3.97;1.65;;;18.20;99.90;;;;;;5043354;28;20552;-82
2022/08/31 07:26:43;;;;;;;4.40;1.80;;;18.80;99.90;;;;;;5043028;28;20036;-81
2022/08/31 07:29:10;;;;;;;4.30;2.38;;;18.10;99.90;;;;;;5050640;28;20528;-81
2022/08/31 07:31:45;;;;;;;5.15;2.10;;;17.70;99.90;;;;;;5045752;28;20033;-81
2022/08/31 07:34:18;;;;;;;7.80;1.60;;;18.30;99.90;;;;;;5046060;28;20124;-82
2022/08/31 07:42:19;;;;;;;3.72;2.10;;;19.50;99.90;;;;;;5048258;28;20558;-81
2022/08/31 07:44:50;;;;;;;4.38;1.95;;;19.10;99.90;;;;;;5043634;28;20043;-81
2022/08/31 07:47:18;;;;;;;5.20;1.88;;;;;;;;;;5047821;28;20132;-81
2022/08/31 07:49:50;;;;;;;3.63;2.13;;;19.30;99.90;;;;;;5048013;28;20226;-81
2022/08/31 07:52:20;;;;;;;3.47;1.80;;;18.50;99.90;;;;;;5048179;28;20036;-82
2022/08/31 07:54:46;;;;;;;2.58;1.55;;;;;;;;;;5049430;28;20024;-81
2022/08/31 07:57:12;;;;;;;3.83;1.98;;;;;;;;;;5048381;28;20021;-82
2022/08/31 07:59:40;;;;;;;3.75;2.30;;;;;;;;;;5049042;28;20035;-82
2022/08/31 08:02:07;;;;;;;4.00;2.13;;;18.90;99.90;;;;;;5043129;28;20045;-81
2022/08/31 08:04:43;;;;;;;5.18;2.05;;;;;;;;;;5046306;28;20095;-80
2022/08/31 08:07:10;;;;;;;6.28;2.38;;;20.00;99.90;;;;;;5042953;28;20033;-82
2022/08/31 08:09:37;;;;;;;7.82;2.67;;;19.30;99.90;;;;;;5045821;28;20032;-82
2022/08/31 08:12:05;;;;;;;5.80;1.98;;;19.50;99.90;;;;;;5049824;28;20044;-81
2022/08/31 08:14:33;;;;;;;3.20;2.03;;;19.70;99.90;;;;;;5052649;28;20032;-83
2022/08/31 08:16:59;;;;;;;3.75;1.75;;;20.00;99.90;;;;;;5046325;28;20036;-82
2022/08/31 08:19:26;;;;;;;8.70;2.50;;;19.80;99.90;;;;;;5050933;28;20409;-82
2022/08/31 08:21:52;;;;;;;2.70;1.80;;;;;;;;;;5058006;28;20071;-82
2022/08/31 08:24:17;;;;;;;4.88;2.22;;;;;;;;;;5044400;28;20064;-81
2022/08/31 08:26:46;;;;;;;10.40;3.30;;;21.20;99.90;;;;;;5047476;28;20055;-81
2022/08/31 08:29:12;;;;;;;3.30;1.75;;;;;;;;;;5051059;28;20033;-83
2022/08/31 08:31:38;;;;;;;6.15;2.53;;;;;;;;;;5047256;28;20033;-82
2022/08/31 08:34:04;;;;;;;8.68;3.72;;;21.40;99.90;;;;;;5044634;28;20078;-82
2022/08/31 08:36:34;;;;;;;3.47;2.13;;;22.00;99.90;;;;;;5052691;28;20477;-81
2022/08/31 08:39:01;;;;;;;4.93;2.20;;;22.60;99.90;;;;;;5047478;28;20401;-81
2022/08/31 08:41:29;;;;;;;6.82;2.30;;;22.70;99.90;;;;;;5050417;28;20025;-81
2022/08/31 08:43:59;;;;;;;4.88;2.75;;;22.70;99.90;;;;;;5046385;28;20029;-82
2022/08/31 08:46:38;;;;;;;5.82;3.10;;;23.50;95.50;;;;;;5049324;28;20037;-82
2022/08/31 08:49:23;;;;;;;5.15;2.75;;;23.20;95.90;;;;;;5043646;28;20485;-83
2022/08/31 08:51:52;;;;;;;4.15;2.63;;;22.40;96.80;;;;;;5047833;28;20582;-81
2022/08/31 08:54:34;;;;;;;3.67;2.05;;;22.60;96.90;;;;;;5046367;28;20107;-81
2022/08/31 08:57:22;;;;;;;4.97;2.53;;;23.40;96.30;;;;;;5049068;28;20165;-82
2022/08/31 08:59:55;;;;;;;3.53;2.20;;;23.30;99.30;;;;;;5051307;28;20082;-82
2022/08/31 09:02:23;;;;;;;;;;;22.10;96.40;;;;;;5041054;28;20397;-81
2022/08/31 09:05:14;;;;;;;3.80;1.95;;;22.70;96.70;;;;;;5043010;28;20553;-82
2022/08/31 09:08:10;;;;;;;3.08;1.58;;;22.30;99.90;;;;;;5043699;28;20083;-82
2022/08/31 09:10:37;;;;;;;3.60;1.95;;;;;;;;;;5042228;28;20045;-82
2022/08/31 09:13:08;;;;;;;3.63;1.70;;;;;;;;;;5045638;28;20028;-82
2022/08/31 09:15:59;;;;;;;2.83;1.67;;;22.30;98.60;;;;;;5046449;28;20597;-83
2022/08/31 09:18:25;;;;;;;2.83;1.83;;;;;;;;;;5043875;28;20044;-82
2022/08/31 09:21:05;;;;;;;4.68;1.70;;;22.50;99.90;;;;;;5049856;28;20029;-81
2022/08/31 09:23:36;;;;;;;3.63;1.92;;;22.40;99.20;;;;;;5049948;28;20116;-83
2022/08/31 09:26:03;;;;;;;3.60;1.98;;;;;;;;;;5047108;28;20496;-81
2022/08/31 09:28:36;;;;;;;5.72;2.28;;;22.20;95.80;;;;;;5047244;28;20037;-82
2022/08/31 09:31:02;;;;;;;3.08;1.88;;;22.60;94.90;;;;;;5047387;28;20067;-82
2022/08/31 09:33:31;;;;;;;3.65;1.60;;;22.60;95.00;;;;;;5044868;28;20017;-82
2022/08/31 09:36:12;;;;;;;4.88;2.08;;;23.80;95.10;;;;;;5051164;28;20028;-82
2022/08/31 09:38:39;;;;;;;3.75;2.13;;;22.90;95.00;;;;;;5047221;28;20580;-82
2022/08/31 09:41:29;;;;;;;2.85;1.73;;;23.90;94.70;;;;;;5046634;28;20040;-82
2022/08/31 09:44:33;;;;;;;3.72;1.67;;;23.20;94.00;;;;;;5044765;28;20025;-81
2022/08/31 09:47:04;;;;;;;8.77;2.25;;;24.40;93.90;;;;;;5051193;28;20393;-82
2022/08/31 09:49:36;;;;;;;8.77;2.35;;;24.40;99.90;;;;;;5045285;28;20478;-83
2022/08/31 09:55:20;;;;;;;6.22;2.22;;;24.60;92.60;;;;;;5045424;28;20040;-81
2022/08/31 09:57:52;;;;;;;10.23;2.58;;;;;;;;;;5046763;28;20405;-81
2022/08/31 10:00:27;;;;;;;4.35;2.05;;;;;;;;;;5041139;28;20029;-81
2022/08/31 10:03:01;;;;;;;2.53;1.58;;;24.80;98.60;;;;;;5052369;28;20057;-81
2022/08/31 10:05:39;;;;;;;4.80;1.90;;;24.90;98.50;;;;;;5049551;28;20037;-81
2022/08/31 10:08:28;;;;;;;4.47;1.85;;;23.70;91.30;;;;;;5040213;28;20049;-80
2022/08/31 10:10:57;;;;;;;3.80;1.77;;;24.80;97.60;;;;;;5044334;28;20043;-82
2022/08/31 10:13:36;;;;;;;3.17;1.77;;;24.70;90.90;;;;;;5043038;28;20025;-82
2022/08/31 10:16:29;;;;;;;7.30;2.30;;;25.20;90.30;;;;;;5043593;28;20063;-82
2022/08/31 10:19:13;;;;;;;5.05;1.60;;;25.00;90.50;;;;;;5049953;28;20608;-80
2022/08/31 10:21:50;;;;;;;4.93;2.20;;;25.40;95.50;;;;;;5047912;28;20036;-81
2022/08/31 10:24:32;;;;;;;3.53;1.67;;;25.10;96.00;;;;;;5046814;28;20040;-82
2022/08/31 10:27:37;;;;;;;2.72;1.63;;;24.80;89.50;;;;;;5047607;28;20029;-81
2022/08/31 10:30:08;;;;;;;7.88;2.33;;;24.90;89.60;;;;;;5048290;28;20044;-80
2022/08/31 10:32:37;;;;;;;2.90;1.50;;;24.70;89.20;;;;;;5041727;28;20118;-82
2022/08/31 10:35:18;;;;;;;7.95;1.73;;;25.30;94.90;;;;;;5050978;28;20108;-81
2022/08/31 10:38:08;;;;;;;4.15;2.15;;;25.00;93.10;;;;;;5050393;28;20035;-81
2022/08/31 10:40:42;;;;;;;3.15;1.98;;;25.30;95.60;;;;;;5043212;28;20029;-80
2022/08/31 10:43:20;;;;;;;7.95;1.85;;;25.30;92.90;;;;;;5046712;28;20468;-81
2022/08/31 10:45:48;;;;;;;2.05;1.40;;;25.60;94.70;;;;;;5051164;28;20104;-81
2022/08/31 10:48:20;;;;;;;5.50;1.50;;;25.50;86.80;;;;;;5045160;28;20152;-81
2022/08/31 10:51:04;;;;;;;4.23;2.00;;;25.80;90.30;;;;;;5043865;28;20040;-83
2022/08/31 10:53:32;;;;;;;3.58;1.60;;;;;;;;;;5040448;28;20024;-80
2022/08/31 10:56:16;;;;;;;3.30;1.80;;;25.70;83.30;;;;;;5045198;28;20796;-82
2022/08/31 10:59:16;;;;;;;6.03;2.17;;;26.20;93.40;;;;;;5046032;28;20025;-82
2022/08/31 11:02:19;;;;;;;7.13;1.80;;;26.20;85.50;;;;;;5043914;28;20036;-81
2022/08/31 11:04:54;;;;;;;6.07;2.07;;;25.70;80.80;;;;;;5044061;28;20056;-82
2022/08/31 11:07:33;;;;;;;4.03;1.98;;;26.80;81.70;;;;;;5045677;28;21110;-82
2022/08/31 11:10:26;;;;;;;3.88;1.70;;;26.50;84.20;;;;;;5042824;28;20440;-81
2022/08/31 11:12:57;;;;;;;3.90;2.05;;;26.50;78.30;;;;;;5044643;28;20463;-82
2022/08/31 11:15:44;;;;;;;3.30;2.13;;;26.30;78.30;;;;;;5042613;28;20032;-82
2022/08/31 11:18:24;;;;;;;4.57;2.20;;;26.40;78.00;;;;;;5045107;28;20471;-82
2022/08/31 11:20:58;;;;;;;5.30;1.88;;;26.50;78.10;;;;;;5039044;28;20059;-82
2022/08/31 11:24:02;;;;;;;2.35;1.42;;;26.00;83.20;;;;;;5050352;28;20033;-82
2022/08/31 11:26:30;;;;;;;3.30;1.40;;;;;;;;;;5026504;28;20033;-81
2022/08/31 11:29:23;;;;;;;4.20;1.65;;;26.00;76.10;;;;;;5052847;28;20067;-82
2022/08/31 11:31:49;;;;;;;;;;;26.10;77.10;;;;;;5045658;28;20957;-81
2022/08/31 11:34:24;;;;;;;2.58;1.40;;;25.90;84.30;;;;;;5050816;28;19916;-81
2022/08/31 11:36:54;;;;;;;8.68;1.63;;;27.10;78.50;;;;;;5049422;28;20422;-82
2022/08/31 11:39:29;;;;;;;1.88;0.98;;;26.00;73.00;;;;;;5051200;28;20040;-82
2022/08/31 11:41:57;;;;;;;2.42;1.35;;;26.10;74.40;;;;;;5048102;28;20517;-82
2022/08/31 11:44:30;;;;;;;2.42;1.05;;;26.00;74.00;;;;;;5054101;28;20444;-82
2022/08/31 11:47:34;;;;;;;1.70;0.80;;;26.40;73.90;;;;;;5051555;28;20442;-82
2022/08/31 11:50:31;;;;;;;5.28;1.55;;;26.30;71.70;;;;;;5045638;28;20033;-83
2022/08/31 11:52:59;;;;;;;2.67;1.40;;;26.30;71.30;;;;;;5019984;28;20112;-81
2022/08/31 11:55:48;;;;;;;2.63;1.13;;;26.10;84.50;;;;;;5055488;28;20131;-81
2022/08/31 11:58:24;;;;;;;1.92;1.17;;;26.40;73.20;;;;;;5047782;28;20436;-82
2022/08/31 12:01:02;;;;;;;2.38;1.20;;;27.20;70.30;;;;;;5052236;28;20028;-83
2022/08/31 12:03:50;;;;;;;3.17;1.00;;;27.10;69.30;;;;;;5050619;28;20029;-81
2022/08/31 12:06:26;;;;;;;2.33;1.15;;;26.70;65.80;;;;;;5053518;28;20047;-82
2022/08/31 12:09:15;;;;;;;4.40;1.45;;;27.00;65.40;;;;;;5052429;28;20477;-82
2022/08/31 12:11:56;;;;;;;2.03;1.13;;;27.00;65.00;;;;;;5042392;28;20635;-81
2022/08/31 12:14:36;;;;;;;1.50;1.13;;;27.00;76.80;;;;;;5052244;28;20038;-83
2022/08/31 12:17:26;;;;;;;2.97;1.55;;;26.40;66.10;;;;;;5049610;28;20032;-83
2022/08/31 12:20:22;;;;;;;2.13;1.17;;;27.30;66.00;;;;;;5052981;28;20033;-83
2022/08/31 12:26:15;;;;;;;3.65;0.80;;;27.30;59.10;;;;;;5049658;28;20089;-82
2022/08/31 12:29:16;;;;;;;2.25;0.82;;;27.00;63.50;;;;;;5055422;28;20040;-82
2022/08/31 12:31:58;;;;;;;2.45;1.10;;;25.50;59.40;;;;;;5047612;28;20033;-81
2022/08/31 12:34:24;;;;;;;2.08;1.05;;;26.60;59.50;;;;;;5047800;28;20021;-81
2022/08/31 12:36:50;;;;;;;2.03;1.08;;;27.10;64.20;;;;;;5050210;28;20115;-83
2022/08/31 12:39:20;;;;;;;3.60;0.98;;;26.90;59.60;;;;;;5048665;28;20073;-82
2022/08/31 12:42:03;;;;;;;1.50;0.90;;;27.20;59.00;;;;;;5046241;28;20041;-81
2022/08/31 12:44:41;;;;;;;1.67;1.20;;;26.70;69.10;;;;;;5051175;28;20029;-83
2022/08/31 12:47:44;;;;;;;8.75;1.17;;;27.40;58.30;;;;;;5046401;28;20032;-83
2022/08/31 12:50:18;;;;;;;2.47;1.15;;;27.30;57.30;;;;;;5052312;28;20032;-83
2022/08/31 12:53:04;;;;;;;3.03;1.50;;;26.30;70.90;;;;;;5047734;28;20029;-81
2022/08/31 12:55:54;;;;;;;1.63;0.77;;;26.40;57.80;;;;;;5049049;28;20121;-82
2022/08/31 12:58:50;;;;;;;1.35;1.00;;;26.40;70.90;;;;;;5050787;28;20060;-82
2022/08/31 13:01:21;;;;;;;2.15;1.15;;;26.80;65.40;;;;;;5048968;28;20044;-82
2022/08/31 13:03:52;;;;;;;1.88;0.95;;;26.70;58.80;;;;;;5045739;28;20029;-82
2022/08/31 13:06:33;;;;;;;1.88;1.08;;;26.80;59.20;;;;;;5054939;28;20107;-80
2022/08/31 13:09:00;;;;;;;2.60;0.85;;;;;;;;;;5051829;28;20037;-81
2022/08/31 13:11:40;;;;;;;1.45;0.80;;;27.00;58.80;;;;;;5054219;28;20410;-81
2022/08/31 13:14:30;;;;;;;2.33;0.95;;;26.60;71.10;;;;;;5050753;28;20102;-83
2022/08/31 13:16:56;;;;;;;3.53;1.05;;;;;;;;;;5054836;28;20046;-82
2022/08/31 13:19:29;;;;;;;2.03;1.02;;;27.30;57.80;;;;;;5046732;28;20040;-82
2022/08/31 13:21:54;;;;;;;;;;;27.40;58.10;;;;;;5049563;28;20110;-81
2022/08/31 13:24:27;;;;;;;1.45;1.02;;;28.40;55.50;;;;;;5045901;28;19974;-81
2022/08/31 13:27:27;;;;;;;1.52;0.80;;;27.90;55.90;;;;;;5043791;28;20497;-83
2022/08/31 13:29:55;;;;;;;2.90;0.73;;;27.30;67.40;;;;;;5031370;28;20398;-82
2022/08/31 13:32:21;;;;;;;1.80;1.00;;;;;;;;;;5048159;28;20071;-82
2022/08/31 13:34:48;;;;;;;3.15;1.27;;;26.90;71.10;;;;;;5051276;28;20465;-82
2022/08/31 13:37:21;;;;;;;1.80;1.00;;;26.60;57.90;;;;;;5053453;28;20104;-81
2022/08/31 13:39:47;;;;;;;3.33;1.05;;;;;;;;;;5048594;28;20072;-82
2022/08/31 13:42:44;;;;;;;1.70;0.80;;;27.30;71.60;;;;;;5053512;28;20032;-81
2022/08/31 13:45:29;;;;;;;3.85;1.13;;;26.40;58.10;;;;;;5041919;28;20773;-82
2022/08/31 13:48:23;;;;;;;2.53;0.85;;;26.90;60.00;;;;;;5045591;28;20033;-82
2022/08/31 13:50:56;;;;;;;7.25;2.63;;;26.60;61.20;;;;;;5045878;28;20079;-82
2022/08/31 13:53:45;;;;;;;2.08;0.93;;;25.60;59.90;;;;;;5058474;28;20029;-82
2022/08/31 13:59:21;;;;;;;2.67;1.30;;;25.70;69.40;;;;;;5051470;28;20531;-81
2022/08/31 14:01:48;;;;;;;4.10;1.13;;;25.90;61.00;;;;;;5049886;28;20031;-83
2022/08/31 14:04:42;;;;;;;2.85;2.03;;;25.80;61.40;;;;;;5050108;28;20032;-83